Time;durP1;ratioP1;P1;durP2;ratioP2;P2;SDS_P1;SDS_P2;PMS_P1;PMS_P2;Temp;Humidity;BMP_temperature;BMP_pressure;BME280_temperature;BME280_humidity;BME280_pressure;Samples;Min_cycle;Max_cycle;Signal;HPM_P1;HPM_P2
2022/05/31 00:01:37;;;;;;;;;9.00;8.00;;;;;;;;5061579;28;45982;-69
2022/05/31 00:04:02;;;;;;;;;13.50;13.50;;;;;;;;5074619;27;45380;-68
2022/05/31 00:06:28;;;;;;;;;32.75;28.25;;;;;;;;5079483;28;45222;-68
2022/05/31 00:08:53;;;;;;;;;38.50;32.75;;;;;;;;5078885;27;45496;-68
2022/05/31 00:11:18;;;;;;;;;33.50;27.25;;;;;;;;5079127;27;45254;-69
2022/05/31 00:13:44;;;;;;;;;36.75;28.75;;;;;;;;5057737;28;48120;-68
2022/05/31 00:16:10;;;;;;;;;23.00;23.00;;;;;;;;5061116;28;44815;-69
2022/05/31 00:18:35;;;;;;;;;11.50;11.00;;;;;;;;5076251;27;45396;-69
2022/05/31 00:21:00;;;;;;;;;18.33;16.67;;;;;;;;5075353;28;45511;-69
2022/05/31 00:23:26;;;;;;;;;19.75;17.75;;;;;;;;5077032;28;46176;-69
2022/05/31 00:25:51;;;;;;;;;13.67;13.67;;;;;;;;5081537;27;45227;-68
2022/05/31 00:28:16;;;;;;;;;19.00;15.33;;;;;;;;5058843;28;45272;-68
2022/05/31 00:30:41;;;;;;;;;17.00;15.67;;;;;;;;5075926;28;45343;-69
2022/05/31 00:33:07;;;;;;;;;11.33;10.00;;;;;;;;5079467;27;45499;-69
2022/05/31 00:35:36;;;;;;;;;11.67;10.33;;;;;;;;5049661;28;45624;-68
2022/05/31 00:38:02;;;;;;;;;10.67;8.33;;;;;;;;5079599;27;45576;-68
2022/05/31 00:40:28;;;;;;;;;14.00;11.00;;;;;;;;5057396;27;45792;-68
2022/05/31 00:42:58;;;;;;;;;10.33;10.33;;;;;;;;5085140;27;46055;-67
2022/05/31 00:45:26;;;;;;;;;5.67;5.67;;;;;;;;5071654;28;45463;-68
2022/05/31 00:47:52;;;;;;;;;8.00;7.33;;;;;;;;5079401;28;45636;-67
2022/05/31 00:50:36;;;;;;;;;6.33;6.00;;;;;;;;5073720;27;45300;-67
2022/05/31 00:53:05;;;;;;;;;8.00;6.33;;;;;;;;5078182;28;45339;-67
2022/05/31 00:55:42;;;;;;;;;5.33;4.33;;;;;;;;5071045;28;45433;-67
2022/05/31 00:58:09;;;;;;;;;6.67;5.33;;;;;;;;5077902;27;45343;-67
2022/05/31 01:00:38;;;;;;;;;7.00;6.00;;;;;;;;5072990;27;45540;-68
2022/05/31 01:03:04;;;;;;;;;5.00;5.00;;;;;;;;5077738;28;45704;-67
2022/05/31 01:05:29;;;;;;;;;5.00;5.00;;;;;;;;5072706;27;45194;-67
2022/05/31 01:07:54;;;;;;;;;5.00;4.00;;;;;;;;5091094;27;45240;-67
2022/05/31 01:10:20;;;;;;;;;5.00;5.00;;;;;;;;5057677;27;47044;-67
2022/05/31 01:12:47;;;;;;;;;6.00;4.00;;;;;;;;5064311;28;47129;-67
2022/05/31 01:15:14;;;;;;;;;5.00;4.00;;;;;;;;5079823;27;45233;-67
2022/05/31 01:17:40;;;;;;;;;5.00;4.00;;;;;;;;5087515;27;45443;-66
2022/05/31 01:20:06;;;;;;;;;6.00;4.33;;;;;;;;5075840;27;45517;-68
2022/05/31 01:22:40;;;;;;;;;4.33;4.00;;;;;;;;5084510;27;45314;-67
2022/05/31 01:25:14;;;;;;;;;3.33;3.33;;;;;;;;5081939;27;46409;-67
2022/05/31 01:27:40;;;;;;;;;4.00;3.67;;;;;;;;5078567;27;45438;-67
2022/05/31 01:30:07;;;;;;;;;5.33;4.00;;;;;;;;5076145;27;45386;-68
2022/05/31 01:32:33;;;;;;;;;4.33;4.00;;;;;;;;5078105;28;46196;-68
2022/05/31 01:34:58;;;;;;;;;4.33;4.00;;;;;;;;5079246;27;45435;-68
2022/05/31 01:37:39;;;;;;;;;3.33;3.33;;;;;;;;5082061;27;45571;-69
2022/05/31 01:40:07;;;;;;;;;3.67;3.67;;;;;;;;5078240;27;45331;-69
2022/05/31 01:42:36;;;;;;;;;3.00;2.00;;;;;;;;5080422;27;45279;-69
2022/05/31 01:45:10;;;;;;;;;4.00;4.00;;;;;;;;5079639;27;45297;-68
2022/05/31 01:47:36;;;;;;;;;5.00;4.00;;;;;;;;5064354;28;45241;-69
2022/05/31 01:50:03;;;;;;;;;3.00;3.00;;;;;;;;5050449;28;46038;-68
2022/05/31 01:52:28;;;;;;;;;6.00;4.00;;;;;;;;5090596;27;45485;-69
2022/05/31 01:54:54;;;;;;;;;3.67;3.33;;;;;;;;5078482;27;45454;-68
2022/05/31 01:57:21;;;;;;;;;4.00;4.00;;;;;;;;5081764;27;45496;-69
2022/05/31 01:59:48;;;;;;;;;3.67;3.67;;;;;;;;5081123;27;45418;-68
2022/05/31 02:02:15;;;;;;;;;3.00;3.00;;;;;;;;5088161;27;45854;-68
2022/05/31 02:04:40;;;;;;;;;4.00;4.00;;;;;;;;5082619;27;45390;-68
2022/05/31 02:07:13;;;;;;;;;4.00;4.00;;;;;;;;5090779;27;47418;-69
2022/05/31 02:09:39;;;;;;;;;3.00;3.00;;;;;;;;5087036;27;45336;-69
2022/05/31 02:12:04;;;;;;;;;3.67;3.00;;;;;;;;5081475;27;46049;-69
2022/05/31 02:14:30;;;;;;;;;3.67;3.00;;;;;;;;5060576;28;45248;-68
2022/05/31 02:16:55;;;;;;;;;4.33;3.33;;;;;;;;5081575;27;45289;-68
2022/05/31 02:19:25;;;;;;;;;3.00;3.00;;;;;;;;5077953;27;45214;-68
2022/05/31 02:21:57;;;;;;;;;1.00;1.00;;;;;;;;5063219;27;47340;-69
2022/05/31 02:24:24;;;;;;;;;2.00;2.00;;;;;;;;5075056;27;45694;-68
2022/05/31 02:26:49;;;;;;;;;4.33;3.00;;;;;;;;5080520;27;45321;-69
2022/05/31 02:29:17;;;;;;;;;3.33;3.33;;;;;;;;5077914;27;45334;-68
2022/05/31 02:31:42;;;;;;;;;3.33;3.33;;;;;;;;5079442;27;46106;-68
2022/05/31 02:34:08;;;;;;;;;4.33;3.00;;;;;;;;5076839;27;45266;-68
2022/05/31 02:36:34;;;;;;;;;3.00;3.00;;;;;;;;5079139;27;45314;-68
2022/05/31 02:38:59;;;;;;;;;3.00;3.00;;;;;;;;5081673;27;45170;-68
2022/05/31 02:41:25;;;;;;;;;2.67;2.67;;;;;;;;5097639;27;46784;-69
2022/05/31 02:43:50;;;;;;;;;5.00;3.67;;;;;;;;5068249;28;45810;-69
2022/05/31 02:46:15;;;;;;;;;3.00;3.00;;;;;;;;5062343;27;45242;-68
2022/05/31 02:48:40;;;;;;;;;3.67;3.00;;;;;;;;5089051;27;45290;-68
2022/05/31 02:51:05;;;;;;;;;3.67;2.67;;;;;;;;5073224;27;45374;-68
2022/05/31 02:53:31;;;;;;;;;3.00;3.00;;;;;;;;5078631;27;45383;-70
2022/05/31 02:55:57;;;;;;;;;4.67;3.00;;;;;;;;5081122;27;45213;-68
2022/05/31 02:58:23;;;;;;;;;6.00;4.00;;;;;;;;5078628;28;45575;-68
2022/05/31 03:00:48;;;;;;;;;3.00;3.00;;;;;;;;5079376;27;45516;-68
2022/05/31 03:03:13;;;;;;;;;2.67;2.67;;;;;;;;5078718;27;45407;-68
2022/05/31 03:05:39;;;;;;;;;8.00;4.00;;;;;;;;5078235;28;45282;-68
2022/05/31 03:08:04;;;;;;;;;3.33;3.33;;;;;;;;5061300;28;46913;-68
2022/05/31 03:10:33;;;;;;;;;4.33;4.33;;;;;;;;5061793;28;48563;-68
2022/05/31 03:12:59;;;;;;;;;8.00;5.00;;;;;;;;5089851;27;45453;-68
2022/05/31 03:15:25;;;;;;;;;4.67;4.67;;;;;;;;5064558;27;45565;-68
2022/05/31 03:17:58;;;;;;;;;5.33;3.33;;;;;;;;5064583;28;46848;-68
2022/05/31 03:20:37;;;;;;;;;2.33;2.33;;;;;;;;5075213;27;46042;-69
2022/05/31 03:23:06;;;;;;;;;5.00;3.00;;;;;;;;5079552;28;45312;-68
2022/05/31 03:25:32;;;;;;;;;4.00;4.00;;;;;;;;5079122;27;45273;-69
2022/05/31 03:27:59;;;;;;;;;7.33;4.67;;;;;;;;5080139;27;45462;-69
2022/05/31 03:30:24;;;;;;;;;5.00;4.00;;;;;;;;5075801;27;45254;-68
2022/05/31 03:32:51;;;;;;;;;5.33;4.00;;;;;;;;5079982;28;45262;-68
2022/05/31 03:35:16;;;;;;;;;4.00;4.00;;;;;;;;5076710;27;46059;-68
2022/05/31 03:37:41;;;;;;;;;3.00;3.00;;;;;;;;5080151;27;45494;-68
2022/05/31 03:40:07;;;;;;;;;4.00;3.00;;;;;;;;5076585;28;45390;-68
2022/05/31 03:42:33;;;;;;;;;3.33;3.00;;;;;;;;5068162;27;45495;-69
2022/05/31 03:44:59;;;;;;;;;6.00;4.00;;;;;;;;5062883;28;45588;-68
2022/05/31 03:47:24;;;;;;;;;4.00;4.00;;;;;;;;5068084;28;46091;-68
2022/05/31 03:49:49;;;;;;;;;6.33;4.33;;;;;;;;5058369;28;48211;-68
2022/05/31 03:52:14;;;;;;;;;6.00;5.00;;;;;;;;5080555;27;45505;-68
2022/05/31 03:54:40;;;;;;;;;5.00;4.00;;;;;;;;5073389;27;45333;-68
2022/05/31 03:57:06;;;;;;;;;4.00;4.00;;;;;;;;5078628;27;45239;-68
2022/05/31 03:59:38;;;;;;;;;4.33;4.33;;;;;;;;5081591;27;47006;-68
2022/05/31 04:02:04;;;;;;;;;6.00;4.00;;;;;;;;5080643;27;45370;-67
2022/05/31 04:04:29;;;;;;;;;5.67;5.67;;;;;;;;5084303;27;45348;-68
2022/05/31 04:06:54;;;;;;;;;5.00;3.67;;;;;;;;5079575;27;45343;-68
2022/05/31 04:09:19;;;;;;;;;5.00;5.00;;;;;;;;5081714;27;45937;-68
2022/05/31 04:11:44;;;;;;;;;6.33;6.33;;;;;;;;5061430;28;45302;-69
2022/05/31 04:14:10;;;;;;;;;6.00;6.00;;;;;;;;5057006;28;45310;-68
2022/05/31 04:16:36;;;;;;;;;7.67;7.00;;;;;;;;5090524;27;45325;-69
2022/05/31 04:19:01;;;;;;;;;6.33;5.33;;;;;;;;5064963;28;45924;-69
2022/05/31 04:21:26;;;;;;;;;6.33;6.33;;;;;;;;5087312;27;45403;-68
2022/05/31 04:23:58;;;;;;;;;6.67;6.00;;;;;;;;5059783;27;46470;-68
2022/05/31 04:26:23;;;;;;;;;5.67;5.67;;;;;;;;5079257;28;45713;-68
2022/05/31 04:28:49;;;;;;;;;6.33;6.33;;;;;;;;5076714;27;45309;-68
2022/05/31 04:31:14;;;;;;;;;6.00;4.00;;;;;;;;5078238;28;45270;-68
2022/05/31 04:33:40;;;;;;;;;5.33;5.33;;;;;;;;5077225;27;45512;-68
2022/05/31 04:36:07;;;;;;;;;6.33;6.33;;;;;;;;5076640;28;45332;-68
2022/05/31 04:38:33;;;;;;;;;4.33;4.33;;;;;;;;5077226;28;45491;-68
2022/05/31 04:40:58;;;;;;;;;4.00;4.00;;;;;;;;5077525;27;45255;-68
2022/05/31 04:43:23;;;;;;;;;7.00;6.00;;;;;;;;5076426;28;45233;-68
2022/05/31 04:45:49;;;;;;;;;5.00;5.00;;;;;;;;5078954;27;45383;-67
2022/05/31 04:48:14;;;;;;;;;6.33;6.33;;;;;;;;5077476;28;46236;-68
2022/05/31 04:50:39;;;;;;;;;6.00;6.00;;;;;;;;5078340;27;45225;-68
2022/05/31 04:53:04;;;;;;;;;7.00;5.33;;;;;;;;5078362;28;45146;-68
2022/05/31 04:55:30;;;;;;;;;9.00;7.00;;;;;;;;5070034;27;45526;-68
2022/05/31 04:57:55;;;;;;;;;5.33;5.33;;;;;;;;5077842;28;46162;-68
2022/05/31 05:00:21;;;;;;;;;6.33;6.00;;;;;;;;5079701;27;45401;-68
2022/05/31 05:02:46;;;;;;;;;6.00;6.00;;;;;;;;5083471;27;45297;-68
2022/05/31 05:05:11;;;;;;;;;4.67;4.67;;;;;;;;5073585;27;45556;-68
2022/05/31 05:07:36;;;;;;;;;6.00;5.33;;;;;;;;5087842;27;45400;-68
2022/05/31 05:10:04;;;;;;;;;5.00;5.00;;;;;;;;5074746;27;45441;-68
2022/05/31 05:12:29;;;;;;;;;6.00;6.00;;;;;;;;5079049;28;45389;-68
2022/05/31 05:14:54;;;;;;;;;7.00;6.33;;;;;;;;5073515;28;45511;-68
2022/05/31 05:17:22;;;;;;;;;6.00;6.00;;;;;;;;5079595;27;45343;-68
2022/05/31 05:19:47;;;;;;;;;5.00;5.00;;;;;;;;5075230;28;45324;-68
2022/05/31 05:22:12;;;;;;;;;5.33;5.00;;;;;;;;5060314;28;45785;-68
2022/05/31 05:24:37;;;;;;;;;5.00;5.00;;;;;;;;5074387;28;45225;-69
2022/05/31 05:27:03;;;;;;;;;5.00;5.00;;;;;;;;5078723;27;45287;-68
2022/05/31 05:32:12;;;;;;;;;4.33;4.00;;;;;;;;5085376;27;45664;-68
2022/05/31 05:34:37;;;;;;;;;4.33;4.33;;;;;;;;5078370;27;45701;-68
2022/05/31 05:37:03;;;;;;;;;5.00;5.00;;;;;;;;5081713;27;46159;-68
2022/05/31 05:39:28;;;;;;;;;6.33;6.33;;;;;;;;5077012;27;45344;-68
2022/05/31 05:41:53;;;;;;;;;7.33;6.33;;;;;;;;5078706;28;45328;-68
2022/05/31 05:44:18;;;;;;;;;6.00;5.00;;;;;;;;5076190;28;45501;-68
2022/05/31 05:46:44;;;;;;;;;6.00;6.00;;;;;;;;5079149;27;46464;-68
2022/05/31 05:49:09;;;;;;;;;8.67;5.33;;;;;;;;5058251;27;45221;-68
2022/05/31 05:51:34;;;;;;;;;6.00;6.00;;;;;;;;5094606;27;45146;-67
2022/05/31 05:54:03;;;;;;;;;6.00;5.33;;;;;;;;5068512;28;45817;-68
2022/05/31 05:56:28;;;;;;;;;9.00;6.00;;;;;;;;5081343;27;46073;-68
2022/05/31 05:58:54;;;;;;;;;6.00;6.00;;;;;;;;5060854;28;45410;-68
2022/05/31 06:01:29;;;;;;;;;8.00;6.33;;;;;;;;5058978;28;45318;-68
2022/05/31 06:03:56;;;;;;;;;4.00;4.00;;;;;;;;5082080;27;45355;-68
2022/05/31 06:06:23;;;;;;;;;8.67;4.67;;;;;;;;5080939;27;45439;-68
2022/05/31 06:09:09;;;;;;;;;6.00;5.00;;;;;;;;5077026;28;45508;-68
2022/05/31 06:11:34;;;;;;;;;7.00;7.00;;;;;;;;5081626;27;45273;-68
2022/05/31 06:14:14;;;;;;;;;6.67;5.33;;;;;;;;5060777;27;46353;-68
2022/05/31 06:16:49;;;;;;;;;6.33;6.00;;;;;;;;5095078;27;46623;-68
2022/05/31 06:19:16;;;;;;;;;7.00;5.00;;;;;;;;5089447;27;45363;-68
2022/05/31 06:21:43;;;;;;;;;10.00;7.00;;;;;;;;5095237;27;45268;-68
2022/05/31 06:24:09;;;;;;;;;7.00;7.00;;;;;;;;5071471;27;47047;-67
2022/05/31 06:26:34;;;;;;;;;8.00;6.67;;;;;;;;5064827;27;47122;-68
2022/05/31 06:28:59;;;;;;;;;6.00;6.00;;;;;;;;5072651;27;45414;-67
2022/05/31 06:31:24;;;;;;;;;4.33;3.67;;;;;;;;5080220;27;45157;-67
2022/05/31 06:33:49;;;;;;;;;8.33;7.67;;;;;;;;5093140;27;45523;-67
2022/05/31 06:36:15;;;;;;;;;8.00;7.67;;;;;;;;5097313;27;45403;-67
2022/05/31 06:38:41;;;;;;;;;10.33;7.00;;;;;;;;5094954;27;45245;-68
2022/05/31 06:41:06;;;;;;;;;7.33;5.67;;;;;;;;5096874;27;45166;-68
2022/05/31 06:43:32;;;;;;;;;6.67;6.33;;;;;;;;5094439;27;45573;-68
2022/05/31 06:45:57;;;;;;;;;7.67;7.00;;;;;;;;5097565;27;45712;-68
2022/05/31 06:48:22;;;;;;;;;6.67;6.67;;;;;;;;5079247;27;45429;-67
2022/05/31 06:50:48;;;;;;;;;7.00;7.00;;;;;;;;5095396;27;45397;-69
2022/05/31 06:58:41;;;;;;;;;7.33;7.00;;;;;;;;5094984;27;45351;-68
2022/05/31 07:01:06;;;;;;;;;7.33;5.00;;;;;;;;5097312;27;45247;-68
2022/05/31 07:03:32;;;;;;;;;5.00;5.00;;;;;;;;5092980;27;46256;-67
2022/05/31 07:05:58;;;;;;;;;8.00;7.00;;;;;;;;5096586;27;45632;-67
2022/05/31 07:08:23;;;;;;;;;7.33;6.33;;;;;;;;5095782;27;45481;-67
2022/05/31 07:10:48;;;;;;;;;7.67;6.00;;;;;;;;5095864;27;45704;-67
2022/05/31 07:13:14;;;;;;;;;5.67;5.33;;;;;;;;5095021;27;45380;-67
2022/05/31 07:15:39;;;;;;;;;7.00;7.00;;;;;;;;5093458;27;45496;-67
2022/05/31 07:18:05;;;;;;;;;6.00;6.00;;;;;;;;5095157;27;45769;-68
2022/05/31 07:20:31;;;;;;;;;5.33;5.33;;;;;;;;5094299;27;45457;-68
2022/05/31 07:22:56;;;;;;;;;5.00;5.00;;;;;;;;5098058;27;45377;-68
2022/05/31 07:25:21;;;;;;;;;5.00;4.00;;;;;;;;5072735;27;47547;-69
2022/05/31 07:27:46;;;;;;;;;5.33;4.33;;;;;;;;5094457;27;45485;-68
2022/05/31 07:30:12;;;;;;;;;8.67;6.00;;;;;;;;5089056;27;45508;-68
2022/05/31 07:32:37;;;;;;;;;7.00;6.00;;;;;;;;5096653;27;46385;-68
2022/05/31 07:35:02;;;;;;;;;5.33;5.33;;;;;;;;5072540;27;46085;-68
2022/05/31 07:37:27;;;;;;;;;6.67;5.67;;;;;;;;5095516;27;45347;-68
2022/05/31 07:39:53;;;;;;;;;7.67;5.00;;;;;;;;5092397;27;45233;-68
2022/05/31 07:42:18;;;;;;;;;5.33;4.33;;;;;;;;5079448;27;46451;-69
2022/05/31 07:44:43;;;;;;;;;4.00;4.00;;;;;;;;5091222;27;45410;-70
2022/05/31 07:47:08;;;;;;;;;6.33;5.67;;;;;;;;5076568;27;45408;-68
2022/05/31 07:49:33;;;;;;;;;3.00;3.00;;;;;;;;5073726;27;45314;-67
2022/05/31 07:51:59;;;;;;;;;7.00;5.00;;;;;;;;5090877;27;45862;-69
2022/05/31 07:54:24;;;;;;;;;4.33;4.33;;;;;;;;5091942;27;45197;-68
2022/05/31 07:56:49;;;;;;;;;6.00;4.67;;;;;;;;5096120;27;45248;-67
2022/05/31 07:59:15;;;;;;;;;3.33;3.33;;;;;;;;5083833;27;45416;-68
2022/05/31 08:01:40;;;;;;;;;4.33;4.00;;;;;;;;5079767;28;45453;-71
2022/05/31 08:04:06;;;;;;;;;4.00;4.00;;;;;;;;5055140;28;46952;-72
2022/05/31 08:06:32;;;;;;;;;8.00;6.00;;;;;;;;5079225;27;45312;-71
2022/05/31 08:08:58;;;;;;;;;4.33;3.00;;;;;;;;5074347;28;45398;-72
2022/05/31 08:11:24;;;;;;;;;4.00;4.00;;;;;;;;5059777;28;46189;-71
2022/05/31 08:13:49;;;;;;;;;4.33;4.33;;;;;;;;5080098;27;45415;-71
2022/05/31 08:16:16;;;;;;;;;2.67;2.67;;;;;;;;5078813;27;45288;-71
2022/05/31 08:18:45;;;;;;;;;3.67;3.67;;;;;;;;5059602;28;45321;-71
2022/05/31 08:21:12;;;;;;;;;3.00;3.00;;;;;;;;5077846;27;45323;-70
2022/05/31 08:23:37;;;;;;;;;2.67;2.67;;;;;;;;5059034;28;47172;-71
2022/05/31 08:26:03;;;;;;;;;3.00;3.00;;;;;;;;5075282;27;45200;-71
2022/05/31 08:28:28;;;;;;;;;3.00;2.67;;;;;;;;5077436;27;45540;-71
2022/05/31 08:30:55;;;;;;;;;3.33;3.33;;;;;;;;5061847;27;46194;-70
2022/05/31 08:33:20;;;;;;;;;2.00;2.00;;;;;;;;5058710;28;47222;-70
2022/05/31 08:35:46;;;;;;;;;2.25;2.25;;;;;;;;5077125;27;45396;-70
2022/05/31 08:38:11;;;;;;;;;4.00;4.00;;;;;;;;5078330;27;45287;-70
2022/05/31 08:40:42;;;;;;;;;3.00;3.00;;;;;;;;5083216;27;47242;-70
2022/05/31 08:43:11;;;;;;;;;3.50;3.50;;;;;;;;5083582;27;46723;-70
2022/05/31 08:45:57;;;;;;;;;2.25;2.25;;;;;;;;5050476;28;45366;-70
2022/05/31 08:48:25;;;;;;;;;3.00;3.00;;;;;;;;5079574;27;45324;-70
2022/05/31 08:56:54;;;;;;;;;2.50;1.75;;;;;;;;5076544;27;45680;-70
2022/05/31 08:59:24;;;;;;;;;2.00;2.00;;;;;;;;5089915;27;45440;-70
2022/05/31 09:01:52;;;;;;;;;2.00;2.00;;;;;;;;5081103;27;45304;-70
2022/05/31 09:04:17;;;;;;;;;3.00;3.00;;;;;;;;5089618;27;45353;-70
2022/05/31 09:06:48;;;;;;;;;3.50;2.00;;;;;;;;5080508;27;45489;-70
2022/05/31 09:09:19;;;;;;;;;2.75;2.75;;;;;;;;5053626;28;45697;-70
2022/05/31 09:11:59;;;;;;;;;4.50;3.25;;;;;;;;5060210;28;47241;-70
2022/05/31 09:14:33;;;;;;;;;4.00;4.00;;;;;;;;5072180;27;46118;-69
2022/05/31 09:17:12;;;;;;;;;3.80;2.80;;;;;;;;5060261;28;45490;-69
2022/05/31 09:19:43;;;;;;;;;1.40;1.40;;;;;;;;5054824;28;45324;-69
2022/05/31 09:22:09;;;;;;;;;2.00;2.00;;;;;;;;5075055;27;45495;-70
2022/05/31 09:24:40;;;;;;;;;2.25;2.25;;;;;;;;5057836;28;48101;-70
2022/05/31 09:27:08;;;;;;;;;3.80;1.80;;;;;;;;5078355;28;45431;-70
2022/05/31 09:29:50;;;;;;;;;2.00;2.00;;;;;;;;5061481;28;45422;-70
2022/05/31 09:32:38;;;;;;;;;2.00;2.00;;;;;;;;5081346;27;45391;-69
2022/05/31 09:35:27;;;;;;;;;4.40;2.60;;;;;;;;5057028;28;47364;-70
2022/05/31 09:38:05;;;;;;;;;1.80;1.80;;;;;;;;5069922;27;45514;-71
2022/05/31 09:40:33;;;;;;;;;4.00;2.20;;;;;;;;5087741;27;45443;-70
2022/05/31 09:42:58;;;;;;;;;2.00;1.80;;;;;;;;5091149;27;45351;-69
2022/05/31 09:45:23;;;;;;;;;1.75;1.75;;;;;;;;5073280;27;45616;-70
2022/05/31 09:47:50;;;;;;;;;0.25;0.25;;;;;;;;5086493;27;45249;-69
2022/05/31 09:50:22;;;;;;;;;1.80;1.80;;;;;;;;5075593;27;45173;-69
2022/05/31 09:52:47;;;;;;;;;1.75;1.75;;;;;;;;5062903;28;46135;-70
2022/05/31 09:58:13;;;;;;;;;3.00;3.00;;;;;;;;5075481;27;45575;-70
2022/05/31 10:00:59;;;;;;;;;1.80;1.80;;;;;;;;5075674;27;45337;-69
2022/05/31 10:03:34;;;;;;;;;3.60;2.20;;;;;;;;5060632;27;47184;-70
2022/05/31 10:06:18;;;;;;;;;2.80;1.80;;;;;;;;5077225;27;45639;-70
2022/05/31 10:08:47;;;;;;;;;1.00;1.00;;;;;;;;5079357;27;45293;-70
2022/05/31 10:11:14;;;;;;;;;2.20;2.00;;;;;;;;5090830;27;45355;-69
2022/05/31 10:13:41;;;;;;;;;2.20;1.20;;;;;;;;5091807;27;45343;-70
2022/05/31 10:16:11;;;;;;;;;3.60;2.00;;;;;;;;5075643;28;47383;-71
2022/05/31 10:18:47;;;;;;;;;1.00;1.00;;;;;;;;5082136;27;45295;-70
2022/05/31 10:21:25;;;;;;;;;1.60;1.60;;;;;;;;5078126;27;45316;-70
2022/05/31 10:23:50;;;;;;;;;2.00;1.75;;;;;;;;5058830;28;46297;-71
2022/05/31 10:26:23;;;;;;;;;2.00;1.75;;;;;;;;5062782;28;47175;-70
2022/05/31 10:28:53;;;;;;;;;1.40;1.40;;;;;;;;5070268;28;45466;-70
2022/05/31 10:31:20;;;;;;;;;2.75;2.00;;;;;;;;5062542;28;45312;-69
2022/05/31 10:33:54;;;;;;;;;1.00;1.00;;;;;;;;5077977;27;45483;-69
2022/05/31 10:36:20;;;;;;;;;3.00;1.75;;;;;;;;5073581;28;45351;-69
2022/05/31 10:38:47;;;;;;;;;2.00;2.00;;;;;;;;5058933;28;45318;-69
2022/05/31 10:41:18;;;;;;;;;3.00;1.00;;;;;;;;5081461;27;45352;-69
2022/05/31 10:43:43;;;;;;;;;0.75;0.75;;;;;;;;5079623;27;45554;-69
2022/05/31 10:46:09;;;;;;;;;2.00;2.00;;;;;;;;5073513;27;46206;-69
2022/05/31 10:48:38;;;;;;;;;2.00;2.00;;;;;;;;5060548;27;45251;-69
2022/05/31 10:51:07;;;;;;;;;4.00;4.00;;;;;;;;5074355;27;45379;-69
2022/05/31 10:53:34;;;;;;;;;1.40;1.40;;;;;;;;5091745;27;45627;-69
2022/05/31 10:56:04;;;;;;;;;0.00;0.00;;;;;;;;5091667;27;46338;-70
2022/05/31 10:58:48;;;;;;;;;0.00;0.00;;;;;;;;5076679;27;45450;-68
2022/05/31 11:01:27;;;;;;;;;3.60;3.00;;;;;;;;5094100;27;45524;-69
2022/05/31 11:03:52;;;;;;;;;1.20;1.20;;;;;;;;5087846;27;45538;-69
2022/05/31 11:06:36;;;;;;;;;1.25;1.00;;;;;;;;5079652;27;46359;-70
2022/05/31 11:12:23;;;;;;;;;1.20;0.40;;;;;;;;5076968;28;46766;-69
2022/05/31 11:14:54;;;;;;;;;3.00;2.75;;;;;;;;5077252;27;45277;-70
2022/05/31 11:17:25;;;;;;;;;2.80;2.80;;;;;;;;5090073;27;46075;-69
2022/05/31 11:19:50;;;;;;;;;0.20;0.20;;;;;;;;5074717;27;45277;-69
2022/05/31 11:22:28;;;;;;;;;0.75;0.25;;;;;;;;5076215;27;45321;-69
2022/05/31 11:24:53;;;;;;;;;3.00;1.00;;;;;;;;5074796;27;45542;-69
2022/05/31 11:27:34;;;;;;;;;1.00;0.25;;;;;;;;5089239;27;46526;-69
2022/05/31 11:30:14;;;;;;;;;0.20;0.20;;;;;;;;5078224;27;45454;-69
2022/05/31 11:32:39;;;;;;;;;2.50;2.50;;;;;;;;5078386;27;45446;-68
2022/05/31 11:35:27;;;;;;;;;3.75;2.75;;;;;;;;5078160;27;45492;-69
2022/05/31 11:38:22;;;;;;;;;0.00;0.00;;;;;;;;5070738;27;45456;-68
2022/05/31 11:41:06;;;;;;;;;1.40;1.40;;;;;;;;5056185;27;45533;-68
2022/05/31 11:43:34;;;;;;;;;0.80;0.80;;;;;;;;5079034;27;45339;-68
2022/05/31 11:46:28;;;;;;;;;2.00;2.00;;;;;;;;5071893;27;45344;-68
2022/05/31 11:48:56;;;;;;;;;0.20;0.20;;;;;;;;5057608;27;46817;-68
2022/05/31 11:51:27;;;;;;;;;0.80;0.80;;;;;;;;5076606;27;45362;-68
2022/05/31 11:54:25;;;;;;;;;1.20;1.20;;;;;;;;5077993;28;45295;-68
2022/05/31 11:57:08;;;;;;;;;2.00;0.50;;;;;;;;5039373;27;45419;-69
2022/05/31 11:59:52;;;;;;;;;1.80;1.80;;;;;;;;5080876;27;45499;-69
2022/05/31 12:02:34;;;;;;;;;1.40;0.80;;;;;;;;5076566;27;45407;-69
2022/05/31 12:05:03;;;;;;;;;0.00;0.00;;;;;;;;5077719;27;45415;-69
2022/05/31 12:07:39;;;;;;;;;0.80;0.80;;;;;;;;5079571;27;45300;-69
2022/05/31 12:10:12;;;;;;;;;2.80;0.80;;;;;;;;5056117;28;47425;-69
2022/05/31 12:12:39;;;;;;;;;0.80;0.80;;;;;;;;5080901;27;45268;-69
2022/05/31 12:15:14;;;;;;;;;1.40;0.40;;;;;;;;5055483;28;45301;-69
2022/05/31 12:17:58;;;;;;;;;0.00;0.00;;;;;;;;5079461;27;45468;-69
2022/05/31 12:20:27;;;;;;;;;0.20;0.20;;;;;;;;5055202;28;48198;-69
2022/05/31 12:23:03;;;;;;;;;1.80;1.60;;;;;;;;5061440;27;45236;-69
2022/05/31 12:25:33;;;;;;;;;0.20;0.20;;;;;;;;5056076;28;45532;-69
2022/05/31 12:28:06;;;;;;;;;0.80;0.80;;;;;;;;5061249;28;47121;-69
2022/05/31 12:30:36;;;;;;;;;2.00;2.00;;;;;;;;5062807;27;48252;-69
2022/05/31 12:33:01;;;;;;;;;0.60;0.60;;;;;;;;5066519;28;45333;-69
2022/05/31 12:35:29;;;;;;;;;1.75;0.25;;;;;;;;5075427;27;45400;-69
2022/05/31 12:37:57;;;;;;;;;1.75;1.00;;;;;;;;5079627;28;45250;-69
2022/05/31 12:40:34;;;;;;;;;2.00;2.00;;;;;;;;5059877;28;47172;-69
2022/05/31 12:43:00;;;;;;;;;1.00;1.00;;;;;;;;5079611;27;45269;-69
2022/05/31 12:45:25;;;;;;;;;1.00;1.00;;;;;;;;5072310;28;45473;-69
2022/05/31 12:48:01;;;;;;;;;3.00;1.25;;;;;;;;5060921;28;47344;-69
2022/05/31 12:50:44;;;;;;;;;1.00;1.00;;;;;;;;5054910;28;47350;-69
2022/05/31 12:55:36;;;;;;;;;1.00;1.00;;;;;;;;5075532;27;45222;-71
2022/05/31 12:58:26;;;;;;;;;1.00;1.00;;;;;;;;5098950;27;45276;-71
2022/05/31 13:00:55;;;;;;;;;1.00;1.00;;;;;;;;5089467;27;46564;-70
2022/05/31 13:03:33;;;;;;;;;1.50;1.50;;;;;;;;5093367;27;45433;-71
2022/05/31 13:06:14;;;;;;;;;0.75;0.75;;;;;;;;5092949;27;45463;-71
2022/05/31 13:08:52;;;;;;;;;0.75;0.75;;;;;;;;5094679;27;45456;-71
2022/05/31 13:20:23;;;;;;;;;0.80;0.80;;;;;;;;5028804;28;45376;-72
2022/05/31 13:22:52;;;;;;;;;2.00;0.25;;;;;;;;5066159;27;47462;-71
2022/05/31 13:25:22;;;;;;;;;0.80;0.80;;;;;;;;5071537;27;45357;-71
2022/05/31 13:27:53;;;;;;;;;1.00;1.00;;;;;;;;5077113;27;45412;-71
2022/05/31 13:30:20;;;;;;;;;0.75;0.75;;;;;;;;5094058;27;45453;-70
2022/05/31 13:32:46;;;;;;;;;1.75;1.75;;;;;;;;5081793;27;47115;-71
2022/05/31 13:35:15;;;;;;;;;0.00;0.00;;;;;;;;5094196;27;45236;-71
2022/05/31 13:38:07;;;;;;;;;1.00;1.00;;;;;;;;5064286;28;45383;-70
2022/05/31 13:40:42;;;;;;;;;2.00;2.00;;;;;;;;5045715;27;45233;-70
2022/05/31 13:43:18;;;;;;;;;1.00;1.00;;;;;;;;5082088;27;45391;-70
2022/05/31 13:45:44;;;;;;;;;1.00;1.00;;;;;;;;5077189;27;45226;-71
2022/05/31 13:48:12;;;;;;;;;3.00;1.50;;;;;;;;5086973;27;45996;-70
2022/05/31 13:50:39;;;;;;;;;1.50;1.50;;;;;;;;5079015;27;45413;-70
2022/05/31 13:53:05;;;;;;;;;1.60;1.60;;;;;;;;5078259;28;47232;-71
2022/05/31 13:55:31;;;;;;;;;2.60;2.60;;;;;;;;5074877;27;45632;-71
2022/05/31 13:57:57;;;;;;;;;1.75;1.75;;;;;;;;5069146;28;45268;-71
2022/05/31 14:00:33;;;;;;;;;2.00;2.00;;;;;;;;5077782;27;45300;-71
2022/05/31 14:03:05;;;;;;;;;1.00;1.00;;;;;;;;5063132;28;48505;-72
2022/05/31 14:05:33;;;;;;;;;0.80;0.80;;;;;;;;5058447;28;45608;-70
2022/05/31 14:07:59;;;;;;;;;1.00;1.00;;;;;;;;5081727;27;45494;-71
2022/05/31 14:10:26;;;;;;;;;0.00;0.00;;;;;;;;5074447;27;45325;-70
2022/05/31 14:12:54;;;;;;;;;0.80;0.80;;;;;;;;5081792;27;47075;-70
2022/05/31 14:15:24;;;;;;;;;0.00;0.00;;;;;;;;5074535;27;45450;-71
2022/05/31 14:17:49;;;;;;;;;0.75;0.75;;;;;;;;5064358;28;45474;-72
2022/05/31 14:20:25;;;;;;;;;3.00;2.00;;;;;;;;5077644;27;45212;-72
2022/05/31 14:22:52;;;;;;;;;1.60;1.60;;;;;;;;5088615;27;45952;-72
2022/05/31 14:25:23;;;;;;;;;0.60;0.60;;;;;;;;5083494;27;45379;-71
2022/05/31 14:27:49;;;;;;;;;1.00;1.00;;;;;;;;5079923;27;45178;-70
2022/05/31 14:30:34;;;;;;;;;0.25;0.25;;;;;;;;5080894;27;45430;-71
2022/05/31 14:33:07;;;;;;;;;1.60;1.60;;;;;;;;5054146;28;48369;-71
2022/05/31 14:35:37;;;;;;;;;1.20;0.20;;;;;;;;5071781;27;45415;-72
2022/05/31 14:38:04;;;;;;;;;1.00;1.00;;;;;;;;5063363;28;45403;-71
2022/05/31 14:40:31;;;;;;;;;2.75;1.00;;;;;;;;5079402;27;45428;-71
2022/05/31 14:43:04;;;;;;;;;1.00;1.00;;;;;;;;5063150;28;48401;-71
2022/05/31 14:45:36;;;;;;;;;1.00;0.80;;;;;;;;5071832;27;45466;-71
2022/05/31 14:48:22;;;;;;;;;1.00;1.00;;;;;;;;5081416;27;45403;-70
2022/05/31 14:50:54;;;;;;;;;0.00;0.00;;;;;;;;5064463;27;45574;-70
2022/05/31 14:53:19;;;;;;;;;1.00;1.00;;;;;;;;5080065;28;46167;-70
2022/05/31 14:55:46;;;;;;;;;1.50;1.00;;;;;;;;5076900;27;45302;-71
2022/05/31 14:58:38;;;;;;;;;0.25;0.25;;;;;;;;5087836;27;45404;-70
2022/05/31 15:01:14;;;;;;;;;1.00;1.00;;;;;;;;5078726;27;45173;-71
2022/05/31 15:03:42;;;;;;;;;2.00;1.00;;;;;;;;5078357;28;46250;-71
2022/05/31 15:06:09;;;;;;;;;2.00;0.75;;;;;;;;5078464;27;45260;-71
2022/05/31 15:08:36;;;;;;;;;2.25;1.00;;;;;;;;5078125;27;45541;-70
2022/05/31 15:19:21;;;;;;;;;1.00;1.00;;;;;;;;5073453;27;45379;-72
2022/05/31 15:21:48;;;;;;;;;1.25;1.00;;;;;;;;5086374;27;45526;-71
2022/05/31 15:24:31;;;;;;;;;1.60;1.60;;;;;;;;5072033;27;46248;-72
2022/05/31 15:26:58;;;;;;;;;0.00;0.00;;;;;;;;5072673;27;45332;-71
2022/05/31 15:29:23;;;;;;;;;2.00;1.00;;;;;;;;5076345;27;45367;-70
2022/05/31 15:31:48;;;;;;;;;1.75;1.00;;;;;;;;5086507;27;45360;-71